Fresno Yosemite International Airport
KFAT : rendu visible

Aérodrome :











RETROUVEZ-NOUS SUR...

 
LOGIN :

S'inscrire | Disclaimer

   EN    FR    IT 

 









Légende :    VFR   VFR Marginal   IFR   IFR Intensif   IFR Très Intensif
Visi : 
Plafond : 
>= 8 km
>= 3000ft
5 à 8 km
1000 à 3000 ft
1500m à 5 km
500 à 1000 ft
800 à 1500m
200 à 500 ft
< 800m
< 200 ft
Symboles :   Orages  Brouillard  Fortes neiges  Fortes précipitations  Vent > 20 kt






- Altitude de l'aérodrome : 336 ft
- Code IATA : FAT


KFAT - Fresno Yosemite International

DERNIER METAR :
  • 090925Z 00000KT 1/4SM R29R/1600FT FG VV002 09/09 A3011 RMK AO2 TWR VIS 1/2 T00890089 $

METARs EXPIRÉS :
  • 090853Z 00000KT 1/2SM R29R/P6000FT BR OVC002 09/08 A3011 RMK AO2 SFC VIS 2 SLP197 T00890078 51004 $
  • 090821Z 00000KT 8SM BKN003 08/08 A3011 RMK AO2 T00830078 $
  • 090812Z 00000KT 9SM SCT004 09/08 A3011 RMK AO2 T00890078 $
  • 090753Z 03003KT 10SM CLR 09/08 A3011 RMK AO2 SLP195 T00890078 401720089 $
  • 090653Z 30004KT 10SM CLR 09/08 A3010 RMK AO2 SLP192 T00940083 $

TAF KFAT
Valide du 09 à 09h jusqu'au 10 à 06h UTC


090849Z 0909/1006 VRB03KT 1/4SM FG VV002
FM091800 30003KT P6SM SKC
FM100300 VRB03KT 4SM BR SKC



MET'MAP, la Météo Aéronautique d'un coup d'oeil ! - Copyright ORBIFLY Décembre 2007 - Disclaimer

ORBIFLY MET'MAP TEAM :

Programmation & Développement : Alexandra Zaïnal
Sur une idée originale de : Baudouin d'Aumeries
Assistance à la programmation : Marc-Olivier Méhu
Soutien technique & logistique : Manuel Goepfert

Contact : metmap@orbifly.com




SOURCES & CREDITS :

   NOAA       Earth
Advisory